sensor_id;sensor_type;location;lat;lon;timestamp;P1;durP1;ratioP1;P2;durP2;ratioP2
78148;SDS011;67396;42.664;23.382;2024-03-02T00:01:07;33.33;;;16.58;;
78148;SDS011;67396;42.664;23.382;2024-03-02T00:03:34;39.38;;;16.90;;
78148;SDS011;67396;42.664;23.382;2024-03-02T00:06:02;36.22;;;17.80;;
78148;SDS011;67396;42.664;23.382;2024-03-02T00:08:27;37.83;;;16.00;;
78148;SDS011;67396;42.664;23.382;2024-03-02T00:10:58;38.35;;;16.10;;
78148;SDS011;67396;42.664;23.382;2024-03-02T00:13:25;37.38;;;18.35;;
78148;SDS011;67396;42.664;23.382;2024-03-02T00:15:51;33.33;;;16.27;;
78148;SDS011;67396;42.664;23.382;2024-03-02T00:18:19;38.38;;;18.60;;
78148;SDS011;67396;42.664;23.382;2024-03-02T00:21:00;34.67;;;17.50;;
78148;SDS011;67396;42.664;23.382;2024-03-02T00:23:29;37.83;;;18.23;;
78148;SDS011;67396;42.664;23.382;2024-03-02T00:25:56;34.08;;;15.80;;
78148;SDS011;67396;42.664;23.382;2024-03-02T00:28:30;38.92;;;16.95;;
78148;SDS011;67396;42.664;23.382;2024-03-02T00:33:51;34.38;;;17.45;;
78148;SDS011;67396;42.664;23.382;2024-03-02T00:36:17;26.45;;;14.40;;
78148;SDS011;67396;42.664;23.382;2024-03-02T00:38:48;35.88;;;16.73;;
78148;SDS011;67396;42.664;23.382;2024-03-02T00:41:24;32.90;;;14.88;;
78148;SDS011;67396;42.664;23.382;2024-03-02T00:46:22;33.50;;;15.50;;
78148;SDS011;67396;42.664;23.382;2024-03-02T00:48:51;31.27;;;16.00;;
78148;SDS011;67396;42.664;23.382;2024-03-02T00:51:19;31.52;;;16.15;;
78148;SDS011;67396;42.664;23.382;2024-03-02T00:53:46;27.33;;;12.88;;
78148;SDS011;67396;42.664;23.382;2024-03-02T00:56:12;28.83;;;14.82;;
78148;SDS011;67396;42.664;23.382;2024-03-02T00:58:39;27.40;;;13.68;;
78148;SDS011;67396;42.664;23.382;2024-03-02T01:01:05;33.40;;;14.48;;
78148;SDS011;67396;42.664;23.382;2024-03-02T01:03:32;26.73;;;12.23;;
78148;SDS011;67396;42.664;23.382;2024-03-02T01:05:58;26.23;;;12.90;;
78148;SDS011;67396;42.664;23.382;2024-03-02T01:08:24;32.22;;;15.43;;
78148;SDS011;67396;42.664;23.382;2024-03-02T01:10:50;32.35;;;15.52;;
78148;SDS011;67396;42.664;23.382;2024-03-02T01:13:15;37.63;;;16.65;;
78148;SDS011;67396;42.664;23.382;2024-03-02T01:15:41;34.70;;;15.70;;
78148;SDS011;67396;42.664;23.382;2024-03-02T01:18:06;34.25;;;17.25;;
78148;SDS011;67396;42.664;23.382;2024-03-02T01:20:32;30.85;;;15.32;;
78148;SDS011;67396;42.664;23.382;2024-03-02T01:22:58;32.63;;;15.98;;
78148;SDS011;67396;42.664;23.382;2024-03-02T01:25:24;25.02;;;14.45;;
78148;SDS011;67396;42.664;23.382;2024-03-02T01:27:50;31.55;;;15.27;;
78148;SDS011;67396;42.664;23.382;2024-03-02T01:30:15;31.38;;;14.88;;
78148;SDS011;67396;42.664;23.382;2024-03-02T01:32:41;32.88;;;14.80;;
78148;SDS011;67396;42.664;23.382;2024-03-02T01:35:06;32.40;;;15.38;;
78148;SDS011;67396;42.664;23.382;2024-03-02T01:37:33;31.85;;;16.88;;
78148;SDS011;67396;42.664;23.382;2024-03-02T01:39:58;32.25;;;15.15;;
78148;SDS011;67396;42.664;23.382;2024-03-02T01:42:24;26.45;;;15.27;;
78148;SDS011;67396;42.664;23.382;2024-03-02T01:44:49;33.13;;;15.95;;
78148;SDS011;67396;42.664;23.382;2024-03-02T01:47:16;33.70;;;15.18;;
78148;SDS011;67396;42.664;23.382;2024-03-02T01:49:41;33.08;;;16.02;;
78148;SDS011;67396;42.664;23.382;2024-03-02T01:52:07;30.58;;;15.60;;
78148;SDS011;67396;42.664;23.382;2024-03-02T01:54:32;36.17;;;16.08;;
78148;SDS011;67396;42.664;23.382;2024-03-02T01:56:59;32.83;;;16.30;;
78148;SDS011;67396;42.664;23.382;2024-03-02T01:59:25;30.85;;;15.70;;
78148;SDS011;67396;42.664;23.382;2024-03-02T02:01:52;30.50;;;13.95;;
78148;SDS011;67396;42.664;23.382;2024-03-02T02:04:17;32.50;;;14.27;;
78148;SDS011;67396;42.664;23.382;2024-03-02T02:06:46;32.80;;;15.77;;
78148;SDS011;67396;42.664;23.382;2024-03-02T02:09:11;35.65;;;15.60;;
78148;SDS011;67396;42.664;23.382;2024-03-02T02:11:37;33.03;;;15.38;;
78148;SDS011;67396;42.664;23.382;2024-03-02T02:14:02;44.17;;;17.67;;
78148;SDS011;67396;42.664;23.382;2024-03-02T02:16:28;36.97;;;16.25;;
78148;SDS011;67396;42.664;23.382;2024-03-02T02:18:53;38.03;;;17.00;;
78148;SDS011;67396;42.664;23.382;2024-03-02T02:21:22;40.60;;;16.95;;
78148;SDS011;67396;42.664;23.382;2024-03-02T02:23:48;34.17;;;16.75;;
78148;SDS011;67396;42.664;23.382;2024-03-02T02:26:13;34.97;;;16.60;;
78148;SDS011;67396;42.664;23.382;2024-03-02T02:28:39;37.58;;;17.58;;
78148;SDS011;67396;42.664;23.382;2024-03-02T02:31:11;33.65;;;15.32;;
78148;SDS011;67396;42.664;23.382;2024-03-02T02:33:39;33.97;;;16.25;;
78148;SDS011;67396;42.664;23.382;2024-03-02T02:36:05;38.33;;;17.05;;
78148;SDS011;67396;42.664;23.382;2024-03-02T02:38:31;40.00;;;16.98;;
78148;SDS011;67396;42.664;23.382;2024-03-02T02:41:00;33.75;;;14.85;;
78148;SDS011;67396;42.664;23.382;2024-03-02T02:43:26;38.90;;;18.08;;
78148;SDS011;67396;42.664;23.382;2024-03-02T02:45:51;35.22;;;16.35;;
78148;SDS011;67396;42.664;23.382;2024-03-02T02:48:16;39.85;;;16.65;;
78148;SDS011;67396;42.664;23.382;2024-03-02T02:50:42;33.45;;;15.35;;
78148;SDS011;67396;42.664;23.382;2024-03-02T02:53:07;34.30;;;15.70;;
78148;SDS011;67396;42.664;23.382;2024-03-02T02:55:35;36.92;;;16.70;;
78148;SDS011;67396;42.664;23.382;2024-03-02T02:58:05;37.17;;;17.27;;
78148;SDS011;67396;42.664;23.382;2024-03-02T03:00:31;32.97;;;15.85;;
78148;SDS011;67396;42.664;23.382;2024-03-02T03:02:57;31.58;;;15.68;;
78148;SDS011;67396;42.664;23.382;2024-03-02T03:05:22;41.90;;;18.50;;
78148;SDS011;67396;42.664;23.382;2024-03-02T03:07:48;37.15;;;16.88;;
78148;SDS011;67396;42.664;23.382;2024-03-02T03:10:15;39.03;;;18.38;;
78148;SDS011;67396;42.664;23.382;2024-03-02T03:12:41;35.00;;;17.73;;
78148;SDS011;67396;42.664;23.382;2024-03-02T03:15:10;38.58;;;18.92;;
78148;SDS011;67396;42.664;23.382;2024-03-02T03:17:36;42.92;;;19.55;;
78148;SDS011;67396;42.664;23.382;2024-03-02T03:20:02;39.90;;;18.45;;
78148;SDS011;67396;42.664;23.382;2024-03-02T03:22:29;38.47;;;19.02;;
78148;SDS011;67396;42.664;23.382;2024-03-02T03:24:56;43.85;;;19.95;;
78148;SDS011;67396;42.664;23.382;2024-03-02T03:27:22;36.03;;;17.00;;
78148;SDS011;67396;42.664;23.382;2024-03-02T03:29:47;34.95;;;16.33;;
78148;SDS011;67396;42.664;23.382;2024-03-02T03:32:13;33.60;;;15.95;;
78148;SDS011;67396;42.664;23.382;2024-03-02T03:34:39;36.78;;;17.27;;
78148;SDS011;67396;42.664;23.382;2024-03-02T03:37:05;32.13;;;16.85;;
78148;SDS011;67396;42.664;23.382;2024-03-02T03:39:31;37.90;;;16.38;;
78148;SDS011;67396;42.664;23.382;2024-03-02T03:41:56;30.25;;;14.07;;
78148;SDS011;67396;42.664;23.382;2024-03-02T03:44:22;38.13;;;17.95;;
78148;SDS011;67396;42.664;23.382;2024-03-02T03:46:47;33.28;;;15.98;;
78148;SDS011;67396;42.664;23.382;2024-03-02T03:49:13;36.20;;;17.08;;
78148;SDS011;67396;42.664;23.382;2024-03-02T03:51:38;34.83;;;16.80;;
78148;SDS011;67396;42.664;23.382;2024-03-02T03:54:04;37.55;;;17.58;;
78148;SDS011;67396;42.664;23.382;2024-03-02T03:56:29;35.67;;;16.90;;
78148;SDS011;67396;42.664;23.382;2024-03-02T03:58:55;35.42;;;15.75;;
78148;SDS011;67396;42.664;23.382;2024-03-02T04:01:20;35.40;;;17.58;;
78148;SDS011;67396;42.664;23.382;2024-03-02T04:03:47;35.03;;;16.95;;
78148;SDS011;67396;42.664;23.382;2024-03-02T04:06:13;35.97;;;16.77;;
78148;SDS011;67396;42.664;23.382;2024-03-02T04:08:39;37.40;;;15.23;;
78148;SDS011;67396;42.664;23.382;2024-03-02T04:11:06;34.75;;;12.13;;
78148;SDS011;67396;42.664;23.382;2024-03-02T04:13:33;32.30;;;15.23;;
78148;SDS011;67396;42.664;23.382;2024-03-02T04:15:58;29.02;;;14.45;;
78148;SDS011;67396;42.664;23.382;2024-03-02T04:18:24;27.40;;;14.13;;
78148;SDS011;67396;42.664;23.382;2024-03-02T04:20:49;29.55;;;14.48;;
78148;SDS011;67396;42.664;23.382;2024-03-02T04:23:15;35.42;;;15.50;;
78148;SDS011;67396;42.664;23.382;2024-03-02T04:25:40;28.55;;;14.60;;
78148;SDS011;67396;42.664;23.382;2024-03-02T04:28:06;28.33;;;14.35;;
78148;SDS011;67396;42.664;23.382;2024-03-02T04:30:31;29.52;;;15.43;;
78148;SDS011;67396;42.664;23.382;2024-03-02T04:32:57;28.08;;;14.80;;
78148;SDS011;67396;42.664;23.382;2024-03-02T04:35:23;27.13;;;14.20;;
78148;SDS011;67396;42.664;23.382;2024-03-02T04:37:50;33.42;;;15.02;;
78148;SDS011;67396;42.664;23.382;2024-03-02T04:40:15;31.55;;;15.20;;
78148;SDS011;67396;42.664;23.382;2024-03-02T04:42:41;37.17;;;16.02;;
78148;SDS011;67396;42.664;23.382;2024-03-02T04:45:06;34.05;;;16.08;;
78148;SDS011;67396;42.664;23.382;2024-03-02T04:47:32;25.58;;;13.82;;
78148;SDS011;67396;42.664;23.382;2024-03-02T04:49:58;30.02;;;15.57;;
78148;SDS011;67396;42.664;23.382;2024-03-02T04:52:23;33.88;;;15.25;;
78148;SDS011;67396;42.664;23.382;2024-03-02T04:54:49;34.63;;;16.52;;
78148;SDS011;67396;42.664;23.382;2024-03-02T04:57:33;32.22;;;15.10;;
78148;SDS011;67396;42.664;23.382;2024-03-02T04:59:58;30.88;;;15.20;;
78148;SDS011;67396;42.664;23.382;2024-03-02T05:02:24;33.05;;;16.25;;
78148;SDS011;67396;42.664;23.382;2024-03-02T05:04:49;31.77;;;15.38;;
78148;SDS011;67396;42.664;23.382;2024-03-02T05:07:15;34.10;;;16.83;;
78148;SDS011;67396;42.664;23.382;2024-03-02T05:09:41;32.42;;;15.98;;
78148;SDS011;67396;42.664;23.382;2024-03-02T05:12:07;38.55;;;17.40;;
78148;SDS011;67396;42.664;23.382;2024-03-02T05:14:54;31.80;;;15.85;;
78148;SDS011;67396;42.664;23.382;2024-03-02T05:17:21;37.15;;;14.88;;
78148;SDS011;67396;42.664;23.382;2024-03-02T05:19:46;42.72;;;17.92;;
78148;SDS011;67396;42.664;23.382;2024-03-02T05:22:12;41.72;;;17.20;;
78148;SDS011;67396;42.664;23.382;2024-03-02T05:24:37;35.75;;;16.45;;
78148;SDS011;67396;42.664;23.382;2024-03-02T05:27:02;35.63;;;16.38;;
78148;SDS011;67396;42.664;23.382;2024-03-02T05:29:28;38.88;;;16.25;;
78148;SDS011;67396;42.664;23.382;2024-03-02T05:31:53;37.17;;;16.00;;
78148;SDS011;67396;42.664;23.382;2024-03-02T05:34:19;30.40;;;14.63;;
78148;SDS011;67396;42.664;23.382;2024-03-02T05:36:44;38.28;;;15.75;;
78148;SDS011;67396;42.664;23.382;2024-03-02T05:39:10;40.15;;;17.65;;
78148;SDS011;67396;42.664;23.382;2024-03-02T05:41:35;34.30;;;15.90;;
78148;SDS011;67396;42.664;23.382;2024-03-02T05:44:03;36.83;;;17.35;;
78148;SDS011;67396;42.664;23.382;2024-03-02T05:46:28;35.30;;;15.70;;
78148;SDS011;67396;42.664;23.382;2024-03-02T05:48:54;46.85;;;18.10;;
78148;SDS011;67396;42.664;23.382;2024-03-02T05:51:19;35.17;;;16.77;;
78148;SDS011;67396;42.664;23.382;2024-03-02T05:53:45;36.47;;;16.90;;
78148;SDS011;67396;42.664;23.382;2024-03-02T05:56:11;35.17;;;16.58;;
78148;SDS011;67396;42.664;23.382;2024-03-02T05:58:37;34.35;;;18.10;;
78148;SDS011;67396;42.664;23.382;2024-03-02T06:01:18;41.05;;;18.58;;
78148;SDS011;67396;42.664;23.382;2024-03-02T06:03:44;32.35;;;15.88;;
78148;SDS011;67396;42.664;23.382;2024-03-02T06:06:09;35.17;;;18.15;;
78148;SDS011;67396;42.664;23.382;2024-03-02T06:08:35;35.40;;;17.35;;
78148;SDS011;67396;42.664;23.382;2024-03-02T06:11:01;44.33;;;18.90;;
78148;SDS011;67396;42.664;23.382;2024-03-02T06:13:26;40.25;;;18.42;;
78148;SDS011;67396;42.664;23.382;2024-03-02T06:15:52;35.95;;;17.70;;
78148;SDS011;67396;42.664;23.382;2024-03-02T06:18:18;40.58;;;18.38;;
78148;SDS011;67396;42.664;23.382;2024-03-02T06:20:43;41.10;;;17.90;;
78148;SDS011;67396;42.664;23.382;2024-03-02T06:23:09;32.20;;;16.75;;
78148;SDS011;67396;42.664;23.382;2024-03-02T06:25:35;37.53;;;16.88;;
78148;SDS011;67396;42.664;23.382;2024-03-02T06:28:00;35.47;;;17.17;;
78148;SDS011;67396;42.664;23.382;2024-03-02T06:30:26;38.97;;;18.40;;
78148;SDS011;67396;42.664;23.382;2024-03-02T06:32:51;38.63;;;16.98;;
78148;SDS011;67396;42.664;23.382;2024-03-02T06:35:17;32.05;;;16.17;;
78148;SDS011;67396;42.664;23.382;2024-03-02T06:37:42;41.58;;;18.73;;
78148;SDS011;67396;42.664;23.382;2024-03-02T06:40:08;44.85;;;18.08;;
78148;SDS011;67396;42.664;23.382;2024-03-02T06:42:34;40.60;;;19.25;;
78148;SDS011;67396;42.664;23.382;2024-03-02T06:45:01;43.05;;;18.52;;
78148;SDS011;67396;42.664;23.382;2024-03-02T06:47:28;46.30;;;18.25;;
78148;SDS011;67396;42.664;23.382;2024-03-02T06:49:53;40.35;;;17.48;;
78148;SDS011;67396;42.664;23.382;2024-03-02T06:52:19;39.00;;;16.13;;
78148;SDS011;67396;42.664;23.382;2024-03-02T06:54:47;41.35;;;18.75;;
78148;SDS011;67396;42.664;23.382;2024-03-02T06:57:12;41.47;;;19.70;;
78148;SDS011;67396;42.664;23.382;2024-03-02T06:59:38;37.00;;;17.13;;
78148;SDS011;67396;42.664;23.382;2024-03-02T07:02:03;45.83;;;21.00;;
78148;SDS011;67396;42.664;23.382;2024-03-02T07:04:29;54.35;;;20.02;;
78148;SDS011;67396;42.664;23.382;2024-03-02T07:09:39;45.28;;;20.45;;
78148;SDS011;67396;42.664;23.382;2024-03-02T07:12:05;40.70;;;18.00;;
78148;SDS011;67396;42.664;23.382;2024-03-02T07:14:31;41.05;;;19.55;;
78148;SDS011;67396;42.664;23.382;2024-03-02T07:17:16;47.95;;;18.70;;
78148;SDS011;67396;42.664;23.382;2024-03-02T07:19:42;45.78;;;20.42;;
78148;SDS011;67396;42.664;23.382;2024-03-02T07:22:07;46.70;;;19.88;;
78148;SDS011;67396;42.664;23.382;2024-03-02T07:24:43;39.35;;;18.15;;
78148;SDS011;67396;42.664;23.382;2024-03-02T07:27:11;42.80;;;18.73;;
78148;SDS011;67396;42.664;23.382;2024-03-02T07:29:37;44.03;;;19.48;;
78148;SDS011;67396;42.664;23.382;2024-03-02T07:32:04;42.85;;;18.33;;
78148;SDS011;67396;42.664;23.382;2024-03-02T07:34:30;41.17;;;18.73;;
78148;SDS011;67396;42.664;23.382;2024-03-02T07:36:56;40.58;;;16.38;;
78148;SDS011;67396;42.664;23.382;2024-03-02T07:39:23;41.35;;;17.85;;
78148;SDS011;67396;42.664;23.382;2024-03-02T07:41:49;43.80;;;17.95;;
78148;SDS011;67396;42.664;23.382;2024-03-02T07:44:15;41.55;;;18.65;;
78148;SDS011;67396;42.664;23.382;2024-03-02T07:46:41;41.13;;;17.95;;
78148;SDS011;67396;42.664;23.382;2024-03-02T07:49:08;36.00;;;17.33;;
78148;SDS011;67396;42.664;23.382;2024-03-02T07:51:34;40.83;;;17.33;;
78148;SDS011;67396;42.664;23.382;2024-03-02T07:54:01;34.08;;;17.08;;
78148;SDS011;67396;42.664;23.382;2024-03-02T07:56:27;42.75;;;17.30;;
78148;SDS011;67396;42.664;23.382;2024-03-02T07:58:53;37.75;;;16.05;;
78148;SDS011;67396;42.664;23.382;2024-03-02T08:01:19;39.83;;;15.77;;
78148;SDS011;67396;42.664;23.382;2024-03-02T08:03:45;39.25;;;17.52;;
78148;SDS011;67396;42.664;23.382;2024-03-02T08:06:13;35.88;;;14.15;;
78148;SDS011;67396;42.664;23.382;2024-03-02T08:08:40;42.47;;;17.50;;
78148;SDS011;67396;42.664;23.382;2024-03-02T08:11:06;37.53;;;16.88;;
78148;SDS011;67396;42.664;23.382;2024-03-02T08:13:35;35.45;;;16.20;;
78148;SDS011;67396;42.664;23.382;2024-03-02T08:16:00;39.45;;;17.27;;
78148;SDS011;67396;42.664;23.382;2024-03-02T08:18:28;34.72;;;15.40;;
78148;SDS011;67396;42.664;23.382;2024-03-02T08:20:53;37.17;;;16.23;;
78148;SDS011;67396;42.664;23.382;2024-03-02T08:23:20;36.13;;;16.58;;
78148;SDS011;67396;42.664;23.382;2024-03-02T08:25:46;40.00;;;15.60;;
78148;SDS011;67396;42.664;23.382;2024-03-02T08:28:12;37.00;;;17.52;;
78148;SDS011;67396;42.664;23.382;2024-03-02T08:30:37;33.30;;;15.73;;
78148;SDS011;67396;42.664;23.382;2024-03-02T08:33:03;37.25;;;17.10;;
78148;SDS011;67396;42.664;23.382;2024-03-02T08:35:29;39.95;;;15.80;;
78148;SDS011;67396;42.664;23.382;2024-03-02T08:37:54;39.80;;;16.85;;
78148;SDS011;67396;42.664;23.382;2024-03-02T08:40:20;34.05;;;14.98;;
78148;SDS011;67396;42.664;23.382;2024-03-02T08:42:46;44.78;;;18.70;;
78148;SDS011;67396;42.664;23.382;2024-03-02T08:45:12;51.50;;;19.02;;
78148;SDS011;67396;42.664;23.382;2024-03-02T08:47:38;45.20;;;17.75;;
78148;SDS011;67396;42.664;23.382;2024-03-02T08:50:04;42.38;;;17.98;;
78148;SDS011;67396;42.664;23.382;2024-03-02T08:52:30;43.05;;;16.98;;
78148;SDS011;67396;42.664;23.382;2024-03-02T08:54:55;38.63;;;17.20;;
78148;SDS011;67396;42.664;23.382;2024-03-02T08:57:21;40.75;;;20.05;;
78148;SDS011;67396;42.664;23.382;2024-03-02T08:59:46;46.30;;;19.95;;
78148;SDS011;67396;42.664;23.382;2024-03-02T09:02:12;37.47;;;16.90;;
78148;SDS011;67396;42.664;23.382;2024-03-02T09:04:37;39.13;;;16.60;;
78148;SDS011;67396;42.664;23.382;2024-03-02T09:07:03;37.70;;;16.67;;
78148;SDS011;67396;42.664;23.382;2024-03-02T09:09:29;40.97;;;18.45;;
78148;SDS011;67396;42.664;23.382;2024-03-02T09:11:56;40.50;;;17.83;;
78148;SDS011;67396;42.664;23.382;2024-03-02T09:14:23;35.53;;;17.80;;
78148;SDS011;67396;42.664;23.382;2024-03-02T09:16:49;42.03;;;18.45;;
78148;SDS011;67396;42.664;23.382;2024-03-02T09:19:14;31.63;;;14.52;;
78148;SDS011;67396;42.664;23.382;2024-03-02T09:21:41;29.02;;;14.93;;
78148;SDS011;67396;42.664;23.382;2024-03-02T09:24:07;39.25;;;16.55;;
78148;SDS011;67396;42.664;23.382;2024-03-02T09:26:33;32.72;;;17.05;;
78148;SDS011;67396;42.664;23.382;2024-03-02T09:28:58;37.67;;;16.88;;
78148;SDS011;67396;42.664;23.382;2024-03-02T09:31:24;38.28;;;17.75;;
78148;SDS011;67396;42.664;23.382;2024-03-02T09:33:50;38.22;;;16.30;;
78148;SDS011;67396;42.664;23.382;2024-03-02T09:36:18;37.28;;;17.85;;
78148;SDS011;67396;42.664;23.382;2024-03-02T09:38:45;40.80;;;18.20;;
78148;SDS011;67396;42.664;23.382;2024-03-02T09:41:11;37.03;;;17.63;;
78148;SDS011;67396;42.664;23.382;2024-03-02T09:43:37;39.00;;;18.63;;
78148;SDS011;67396;42.664;23.382;2024-03-02T09:46:03;47.60;;;20.38;;
78148;SDS011;67396;42.664;23.382;2024-03-02T09:48:29;40.97;;;18.23;;
78148;SDS011;67396;42.664;23.382;2024-03-02T09:50:54;36.63;;;16.80;;
78148;SDS011;67396;42.664;23.382;2024-03-02T09:53:22;42.38;;;17.38;;
78148;SDS011;67396;42.664;23.382;2024-03-02T09:55:48;42.80;;;16.95;;
78148;SDS011;67396;42.664;23.382;2024-03-02T09:58:13;48.30;;;19.75;;
78148;SDS011;67396;42.664;23.382;2024-03-02T10:00:39;46.83;;;18.60;;
78148;SDS011;67396;42.664;23.382;2024-03-02T10:03:04;39.17;;;16.42;;
78148;SDS011;67396;42.664;23.382;2024-03-02T10:05:30;40.33;;;17.13;;
78148;SDS011;67396;42.664;23.382;2024-03-02T10:08:00;38.40;;;16.50;;
78148;SDS011;67396;42.664;23.382;2024-03-02T10:10:37;32.63;;;14.95;;
78148;SDS011;67396;42.664;23.382;2024-03-02T10:13:12;33.85;;;15.27;;
78148;SDS011;67396;42.664;23.382;2024-03-02T10:15:39;38.05;;;16.77;;
78148;SDS011;67396;42.664;23.382;2024-03-02T10:18:09;33.17;;;15.30;;
78148;SDS011;67396;42.664;23.382;2024-03-02T10:20:41;39.85;;;16.58;;
78148;SDS011;67396;42.664;23.382;2024-03-02T10:23:10;34.05;;;16.40;;
78148;SDS011;67396;42.664;23.382;2024-03-02T10:25:37;30.25;;;15.02;;
78148;SDS011;67396;42.664;23.382;2024-03-02T10:28:03;31.65;;;14.77;;
78148;SDS011;67396;42.664;23.382;2024-03-02T10:30:31;31.95;;;16.63;;
78148;SDS011;67396;42.664;23.382;2024-03-02T10:32:57;36.00;;;16.00;;
78148;SDS011;67396;42.664;23.382;2024-03-02T10:35:22;27.88;;;15.18;;
78148;SDS011;67396;42.664;23.382;2024-03-02T10:38:00;40.20;;;16.95;;
78148;SDS011;67396;42.664;23.382;2024-03-02T10:40:32;25.08;;;12.90;;
78148;SDS011;67396;42.664;23.382;2024-03-02T10:42:57;23.42;;;12.18;;
78148;SDS011;67396;42.664;23.382;2024-03-02T10:45:27;29.83;;;13.48;;
78148;SDS011;67396;42.664;23.382;2024-03-02T10:47:53;32.28;;;14.13;;
78148;SDS011;67396;42.664;23.382;2024-03-02T10:50:19;29.77;;;12.43;;
78148;SDS011;67396;42.664;23.382;2024-03-02T10:52:45;26.38;;;12.35;;
78148;SDS011;67396;42.664;23.382;2024-03-02T10:55:11;29.42;;;13.98;;
78148;SDS011;67396;42.664;23.382;2024-03-02T10:57:41;29.13;;;13.60;;
78148;SDS011;67396;42.664;23.382;2024-03-02T11:00:11;36.28;;;13.68;;
78148;SDS011;67396;42.664;23.382;2024-03-02T11:02:42;22.48;;;11.35;;
78148;SDS011;67396;42.664;23.382;2024-03-02T11:05:15;24.83;;;13.82;;
78148;SDS011;67396;42.664;23.382;2024-03-02T11:07:50;25.45;;;12.20;;
78148;SDS011;67396;42.664;23.382;2024-03-02T11:10:19;28.52;;;13.68;;
78148;SDS011;67396;42.664;23.382;2024-03-02T11:12:53;25.73;;;11.98;;
78148;SDS011;67396;42.664;23.382;2024-03-02T11:15:27;26.48;;;11.30;;
78148;SDS011;67396;42.664;23.382;2024-03-02T11:17:52;29.42;;;13.05;;
78148;SDS011;67396;42.664;23.382;2024-03-02T11:20:19;25.00;;;11.60;;
78148;SDS011;67396;42.664;23.382;2024-03-02T11:22:46;26.25;;;10.50;;
78148;SDS011;67396;42.664;23.382;2024-03-02T11:25:27;25.15;;;12.38;;
78148;SDS011;67396;42.664;23.382;2024-03-02T11:30:52;28.10;;;10.93;;
78148;SDS011;67396;42.664;23.382;2024-03-02T11:35:42;19.98;;;10.15;;
78148;SDS011;67396;42.664;23.382;2024-03-02T11:38:12;14.40;;;7.07;;
78148;SDS011;67396;42.664;23.382;2024-03-02T11:40:41;16.00;;;7.60;;
78148;SDS011;67396;42.664;23.382;2024-03-02T11:43:06;17.92;;;7.95;;
78148;SDS011;67396;42.664;23.382;2024-03-02T11:45:35;17.35;;;8.85;;
78148;SDS011;67396;42.664;23.382;2024-03-02T11:48:04;15.57;;;8.13;;
78148;SDS011;67396;42.664;23.382;2024-03-02T11:50:33;13.57;;;7.38;;
78148;SDS011;67396;42.664;23.382;2024-03-02T11:53:03;17.35;;;8.98;;
78148;SDS011;67396;42.664;23.382;2024-03-02T11:55:34;18.35;;;9.80;;
78148;SDS011;67396;42.664;23.382;2024-03-02T11:58:04;16.55;;;8.88;;
78148;SDS011;67396;42.664;23.382;2024-03-02T12:00:30;18.67;;;8.70;;
78148;SDS011;67396;42.664;23.382;2024-03-02T12:03:03;17.20;;;9.88;;
78148;SDS011;67396;42.664;23.382;2024-03-02T12:05:30;19.42;;;8.93;;
78148;SDS011;67396;42.664;23.382;2024-03-02T12:08:00;17.98;;;9.52;;
78148;SDS011;67396;42.664;23.382;2024-03-02T12:10:28;18.48;;;8.88;;
78148;SDS011;67396;42.664;23.382;2024-03-02T12:12:58;18.25;;;9.73;;
78148;SDS011;67396;42.664;23.382;2024-03-02T12:15:29;17.27;;;8.88;;
78148;SDS011;67396;42.664;23.382;2024-03-02T12:17:59;17.67;;;8.98;;
78148;SDS011;67396;42.664;23.382;2024-03-02T12:20:26;17.23;;;8.73;;
78148;SDS011;67396;42.664;23.382;2024-03-02T12:22:54;18.95;;;10.07;;
78148;SDS011;67396;42.664;23.382;2024-03-02T12:25:22;16.77;;;9.43;;
78148;SDS011;67396;42.664;23.382;2024-03-02T12:27:52;22.20;;;11.68;;
78148;SDS011;67396;42.664;23.382;2024-03-02T12:30:19;35.63;;;16.95;;
78148;SDS011;67396;42.664;23.382;2024-03-02T12:32:46;30.75;;;16.17;;
78148;SDS011;67396;42.664;23.382;2024-03-02T12:35:14;32.90;;;14.60;;
78148;SDS011;67396;42.664;23.382;2024-03-02T12:37:44;23.38;;;11.20;;
78148;SDS011;67396;42.664;23.382;2024-03-02T12:40:13;18.80;;;9.93;;
78148;SDS011;67396;42.664;23.382;2024-03-02T12:42:42;18.13;;;9.88;;
78148;SDS011;67396;42.664;23.382;2024-03-02T12:45:08;16.38;;;9.00;;
78148;SDS011;67396;42.664;23.382;2024-03-02T12:47:34;18.48;;;9.00;;
78148;SDS011;67396;42.664;23.382;2024-03-02T12:50:00;15.30;;;9.70;;
78148;SDS011;67396;42.664;23.382;2024-03-02T12:52:27;18.08;;;9.05;;
78148;SDS011;67396;42.664;23.382;2024-03-02T12:54:52;18.98;;;10.35;;
78148;SDS011;67396;42.664;23.382;2024-03-02T12:57:26;28.17;;;11.35;;
78148;SDS011;67396;42.664;23.382;2024-03-02T13:00:03;22.15;;;10.90;;
78148;SDS011;67396;42.664;23.382;2024-03-02T13:02:34;21.10;;;10.27;;
78148;SDS011;67396;42.664;23.382;2024-03-02T13:05:00;19.60;;;10.60;;
78148;SDS011;67396;42.664;23.382;2024-03-02T13:07:26;19.55;;;10.13;;
78148;SDS011;67396;42.664;23.382;2024-03-02T13:09:53;19.60;;;9.73;;
78148;SDS011;67396;42.664;23.382;2024-03-02T13:12:20;18.65;;;8.80;;
78148;SDS011;67396;42.664;23.382;2024-03-02T13:14:49;19.65;;;9.32;;
78148;SDS011;67396;42.664;23.382;2024-03-02T13:17:18;17.27;;;9.88;;
78148;SDS011;67396;42.664;23.382;2024-03-02T13:19:51;22.35;;;10.63;;
78148;SDS011;67396;42.664;23.382;2024-03-02T13:22:21;19.90;;;9.75;;
78148;SDS011;67396;42.664;23.382;2024-03-02T13:24:50;17.35;;;9.40;;
78148;SDS011;67396;42.664;23.382;2024-03-02T13:27:17;16.80;;;9.40;;
78148;SDS011;67396;42.664;23.382;2024-03-02T13:29:46;18.95;;;9.63;;
78148;SDS011;67396;42.664;23.382;2024-03-02T13:32:13;18.65;;;10.18;;
78148;SDS011;67396;42.664;23.382;2024-03-02T13:34:39;18.25;;;9.40;;
78148;SDS011;67396;42.664;23.382;2024-03-02T13:37:05;17.50;;;10.13;;
78148;SDS011;67396;42.664;23.382;2024-03-02T13:39:31;17.55;;;9.73;;
78148;SDS011;67396;42.664;23.382;2024-03-02T13:41:58;20.15;;;10.93;;
78148;SDS011;67396;42.664;23.382;2024-03-02T13:44:32;19.10;;;10.00;;
78148;SDS011;67396;42.664;23.382;2024-03-02T13:46:59;18.35;;;9.55;;
78148;SDS011;67396;42.664;23.382;2024-03-02T13:49:25;16.77;;;9.48;;
78148;SDS011;67396;42.664;23.382;2024-03-02T13:51:58;19.23;;;10.23;;
78148;SDS011;67396;42.664;23.382;2024-03-02T13:54:45;20.08;;;10.57;;
78148;SDS011;67396;42.664;23.382;2024-03-02T13:57:19;20.05;;;11.45;;
78148;SDS011;67396;42.664;23.382;2024-03-02T14:00:24;20.85;;;12.75;;
78148;SDS011;67396;42.664;23.382;2024-03-02T14:02:51;20.83;;;11.55;;
78148;SDS011;67396;42.664;23.382;2024-03-02T14:05:17;22.75;;;12.25;;
78148;SDS011;67396;42.664;23.382;2024-03-02T14:07:44;22.00;;;11.82;;
78148;SDS011;67396;42.664;23.382;2024-03-02T14:10:10;22.55;;;12.00;;
78148;SDS011;67396;42.664;23.382;2024-03-02T14:12:40;26.00;;;13.82;;
78148;SDS011;67396;42.664;23.382;2024-03-02T14:15:06;28.20;;;14.50;;
78148;SDS011;67396;42.664;23.382;2024-03-02T14:17:32;45.60;;;22.13;;
78148;SDS011;67396;42.664;23.382;2024-03-02T14:19:58;26.75;;;13.68;;
78148;SDS011;67396;42.664;23.382;2024-03-02T14:22:24;26.48;;;14.57;;
78148;SDS011;67396;42.664;23.382;2024-03-02T14:24:54;31.20;;;15.18;;